Time;durP1;ratioP1;P1;durP2;ratioP2;P2;SDS_P1;SDS_P2;PMS_P1;PMS_P2;Temp;Humidity;BMP_temperature;BMP_pressure;BME280_temperature;BME280_humidity;BME280_pressure;Samples;Min_cycle;Max_cycle;Signal;HPM_P1;HPM_P2
2023/09/19 00:00:12;;;;;;;0.50;0.40;;;15.40;99.90;;;;;;5071755;28;20813;-82
2023/09/19 00:02:39;;;;;;;4.20;0.90;;;15.40;99.90;;;;;;5068727;28;20460;-81
2023/09/19 00:05:08;;;;;;;3.03;1.13;;;15.30;99.90;;;;;;5070214;28;20480;-83
2023/09/19 00:07:36;;;;;;;1.00;0.67;;;15.30;99.90;;;;;;5072942;28;20946;-83
2023/09/19 00:10:04;;;;;;;1.47;1.23;;;15.30;99.90;;;;;;5073949;28;20504;-83
2023/09/19 00:12:31;;;;;;;0.80;0.80;;;15.30;99.90;;;;;;5071168;28;20447;-82
2023/09/19 00:14:59;;;;;;;0.50;0.40;;;15.30;99.90;;;;;;5069994;28;20436;-82
2023/09/19 00:17:30;;;;;;;0.50;0.40;;;15.20;99.90;;;;;;5070240;28;20444;-82
2023/09/19 00:19:57;;;;;;;0.50;0.40;;;15.20;99.90;;;;;;5069960;28;20505;-82
2023/09/19 00:22:26;;;;;;;0.50;0.40;;;15.20;99.90;;;;;;5072038;28;20451;-81
2023/09/19 00:24:53;;;;;;;1.00;0.90;;;15.20;99.90;;;;;;5074650;28;20447;-81
2023/09/19 00:27:20;;;;;;;1.63;1.53;;;15.20;99.90;;;;;;5073223;28;20512;-80
2023/09/19 00:29:47;;;;;;;0.50;0.40;;;15.20;99.90;;;;;;5071154;28;20443;-83
2023/09/19 00:32:13;;;;;;;0.50;0.50;;;15.20;99.90;;;;;;5071093;28;20444;-79
2023/09/19 00:34:42;;;;;;;0.90;0.90;;;15.20;99.90;;;;;;5071396;28;20431;-80
2023/09/19 00:37:11;;;;;;;0.50;0.40;;;15.20;99.90;;;;;;5070394;28;20520;-82
2023/09/19 00:39:38;;;;;;;2.50;1.17;;;15.10;99.90;;;;;;5067161;28;20448;-82
2023/09/19 00:42:05;;;;;;;0.97;0.97;;;15.10;99.90;;;;;;5075514;28;20477;-82
2023/09/19 00:44:34;;;;;;;0.50;0.43;;;15.10;99.90;;;;;;5073348;28;20455;-82
2023/09/19 00:47:02;;;;;;;0.50;0.50;;;15.10;99.90;;;;;;5064627;28;20468;-81
2023/09/19 00:49:30;;;;;;;0.50;0.40;;;15.00;99.90;;;;;;5074130;28;20942;-79
2023/09/19 00:51:59;;;;;;;0.60;0.60;;;15.00;99.90;;;;;;5075780;28;20452;-80
2023/09/19 00:54:28;;;;;;;0.50;0.40;;;14.90;99.90;;;;;;5066335;28;20465;-80
2023/09/19 00:56:55;;;;;;;1.17;0.57;;;14.90;99.90;;;;;;5072818;28;20435;-80
2023/09/19 00:59:22;;;;;;;0.50;0.40;;;14.90;99.90;;;;;;5071965;28;20435;-81
2023/09/19 01:01:53;;;;;;;0.50;0.40;;;14.90;99.90;;;;;;5072298;28;20657;-80
2023/09/19 01:04:19;;;;;;;0.50;0.50;;;14.90;99.90;;;;;;5073476;28;20494;-81
2023/09/19 01:06:46;;;;;;;0.70;0.50;;;14.90;99.90;;;;;;5071936;28;20530;-80
2023/09/19 01:09:15;;;;;;;0.70;0.63;;;14.90;99.90;;;;;;5071683;28;20536;-80
2023/09/19 01:11:46;;;;;;;0.57;0.50;;;14.90;99.90;;;;;;5079812;28;20535;-80
2023/09/19 01:14:21;;;;;;;0.50;0.40;;;14.80;99.90;;;;;;5071157;28;20566;-79
2023/09/19 01:16:54;;;;;;;0.60;0.40;;;14.80;99.90;;;;;;5071161;28;20441;-80
2023/09/19 01:19:58;;;;;;;0.50;0.40;;;14.80;99.90;;;;;;5071634;28;20463;-80
2023/09/19 01:22:34;;;;;;;0.50;0.40;;;14.80;99.90;;;;;;5072010;28;20929;-78
2023/09/19 01:25:52;;;;;;;0.50;0.50;;;14.80;99.90;;;;;;5069836;28;20458;-80
2023/09/19 01:28:36;;;;;;;1.07;1.07;;;14.70;99.90;;;;;;5032903;28;20447;-80
2023/09/19 01:31:09;;;;;;;0.50;0.40;;;14.70;99.90;;;;;;5068979;28;20471;-80
2023/09/19 01:33:59;;;;;;;4.00;3.00;;;14.70;99.90;;;;;;5071438;28;20879;-80
2023/09/19 01:36:30;;;;;;;0.60;0.50;;;14.70;99.90;;;;;;5071928;28;20928;-80
2023/09/19 01:39:00;;;;;;;2.03;1.27;;;14.70;99.90;;;;;;5073908;28;20548;-78
2023/09/19 01:41:42;;;;;;;0.87;0.87;;;14.70;99.90;;;;;;5065187;28;20443;-78
2023/09/19 01:44:14;;;;;;;0.50;0.40;;;14.70;99.90;;;;;;5071498;28;20466;-79
2023/09/19 01:46:43;;;;;;;0.50;0.40;;;14.70;99.90;;;;;;5070771;28;20502;-79
2023/09/19 01:49:22;;;;;;;0.50;0.40;;;14.70;99.90;;;;;;5073431;28;20439;-80
2023/09/19 01:52:07;;;;;;;0.63;0.63;;;14.70;99.90;;;;;;5078317;28;20455;-80
2023/09/19 01:54:41;;;;;;;0.50;0.40;;;14.60;99.90;;;;;;5071148;28;20543;-81
2023/09/19 01:57:15;;;;;;;0.50;0.40;;;14.60;99.90;;;;;;5073304;28;20431;-80
2023/09/19 01:59:46;;;;;;;0.50;0.40;;;14.60;99.90;;;;;;5064092;28;21018;-80
2023/09/19 02:02:17;;;;;;;1.10;1.00;;;14.70;99.90;;;;;;5072966;28;20528;-79
2023/09/19 02:04:44;;;;;;;3.90;0.87;;;14.60;99.90;;;;;;5070092;28;20434;-80
2023/09/19 02:07:11;;;;;;;1.23;1.13;;;14.60;99.90;;;;;;5068356;28;20472;-81
2023/09/19 02:09:38;;;;;;;0.50;0.40;;;14.60;99.90;;;;;;5071034;28;20439;-81
2023/09/19 02:12:07;;;;;;;1.10;0.53;;;14.60;99.90;;;;;;5066397;28;20440;-81
2023/09/19 02:14:34;;;;;;;0.50;0.40;;;14.60;99.90;;;;;;5069306;28;20477;-78
2023/09/19 02:17:00;;;;;;;0.67;0.57;;;14.60;99.90;;;;;;5072677;28;20434;-81
2023/09/19 02:19:29;;;;;;;0.50;0.40;;;14.60;99.90;;;;;;5072416;28;20435;-79
2023/09/19 02:21:56;;;;;;;1.17;1.07;;;14.60;99.90;;;;;;5064758;28;20523;-80
2023/09/19 02:24:24;;;;;;;0.50;0.40;;;14.60;99.90;;;;;;5063564;28;20542;-81
2023/09/19 02:26:50;;;;;;;0.50;0.40;;;14.60;99.90;;;;;;5071811;28;20470;-79
2023/09/19 02:29:17;;;;;;;0.60;0.60;;;14.60;99.90;;;;;;5065200;28;20447;-80
2023/09/19 02:31:46;;;;;;;0.60;0.50;;;14.50;99.90;;;;;;5068539;28;20518;-80
2023/09/19 02:34:16;;;;;;;0.50;0.40;;;14.50;99.90;;;;;;5067580;28;20467;-80
2023/09/19 02:36:44;;;;;;;0.50;0.40;;;14.50;99.90;;;;;;5069890;28;20432;-81
2023/09/19 02:39:12;;;;;;;2.50;2.30;;;14.50;99.90;;;;;;5070828;28;20440;-79
2023/09/19 02:41:41;;;;;;;0.50;0.40;;;14.50;99.90;;;;;;5068533;28;20509;-79
2023/09/19 02:44:08;;;;;;;1.07;0.73;;;14.50;99.90;;;;;;5067281;28;20465;-80
2023/09/19 02:46:36;;;;;;;0.50;0.43;;;14.50;99.90;;;;;;5068114;28;20552;-81
2023/09/19 02:49:05;;;;;;;0.60;0.50;;;14.50;99.90;;;;;;5071115;28;20474;-80
2023/09/19 02:51:32;;;;;;;0.60;0.50;;;14.50;99.90;;;;;;5070082;28;20447;-79
2023/09/19 02:54:00;;;;;;;0.50;0.47;;;14.50;99.90;;;;;;5067088;28;20685;-79
2023/09/19 02:56:27;;;;;;;0.50;0.40;;;14.50;99.90;;;;;;5066818;28;20439;-78
2023/09/19 02:58:55;;;;;;;0.50;0.40;;;14.50;99.90;;;;;;5061490;28;20857;-80
2023/09/19 03:01:22;;;;;;;17.10;15.40;;;14.50;99.90;;;;;;5070762;28;20443;-80
2023/09/19 03:03:49;;;;;;;9.53;1.23;;;14.50;99.90;;;;;;5061860;28;20473;-79
2023/09/19 03:06:20;;;;;;;0.50;0.40;;;14.50;99.90;;;;;;5064678;28;20448;-78
2023/09/19 03:08:48;;;;;;;0.60;0.60;;;14.50;99.90;;;;;;5069673;28;20447;-80
2023/09/19 03:11:21;;;;;;;0.50;0.40;;;14.40;99.90;;;;;;5070439;28;20445;-79
2023/09/19 03:13:51;;;;;;;0.50;0.40;;;14.40;99.90;;;;;;5068754;28;20527;-79
2023/09/19 03:16:18;;;;;;;0.83;0.83;;;14.40;99.90;;;;;;5066486;28;20520;-81
2023/09/19 03:18:47;;;;;;;0.50;0.40;;;14.40;99.90;;;;;;5069307;28;20473;-81
2023/09/19 03:21:14;;;;;;;0.60;0.60;;;14.40;99.90;;;;;;5059696;28;20439;-79
2023/09/19 03:23:43;;;;;;;0.50;0.40;;;14.40;99.90;;;;;;5063344;28;20650;-78
2023/09/19 03:26:10;;;;;;;0.50;0.50;;;14.40;99.90;;;;;;5059695;28;20934;-79
2023/09/19 03:28:38;;;;;;;0.70;0.60;;;14.40;99.90;;;;;;5071033;28;20435;-80
2023/09/19 03:31:07;;;;;;;4.53;0.93;;;14.40;99.90;;;;;;5061158;28;20534;-80
2023/09/19 03:33:34;;;;;;;0.50;0.40;;;14.40;99.90;;;;;;5061654;28;20466;-80
2023/09/19 03:36:04;;;;;;;0.50;0.40;;;14.30;99.90;;;;;;5064776;28;20949;-80
2023/09/19 03:38:32;;;;;;;0.50;0.40;;;14.30;99.90;;;;;;5065097;28;20441;-79
2023/09/19 03:40:58;;;;;;;0.50;0.40;;;14.30;99.90;;;;;;5061194;28;20439;-80
2023/09/19 03:43:25;;;;;;;0.50;0.40;;;14.30;99.90;;;;;;5061530;28;20461;-80
2023/09/19 03:45:54;;;;;;;0.60;0.60;;;14.30;99.90;;;;;;5060838;28;20439;-79
2023/09/19 03:48:21;;;;;;;0.90;0.80;;;14.30;99.90;;;;;;5053027;28;20478;-79
2023/09/19 03:50:48;;;;;;;0.50;0.40;;;14.30;99.90;;;;;;5061867;28;20903;-79
2023/09/19 03:53:15;;;;;;;3.43;0.53;;;14.20;99.90;;;;;;5053635;28;20466;-79
2023/09/19 03:55:42;;;;;;;0.50;0.40;;;14.20;99.90;;;;;;5058237;28;20715;-79
2023/09/19 03:58:08;;;;;;;0.50;0.40;;;14.20;99.90;;;;;;5062575;28;20485;-80
2023/09/19 04:00:35;;;;;;;0.50;0.43;;;14.20;99.90;;;;;;5064228;28;20453;-80
2023/09/19 04:03:06;;;;;;;0.50;0.40;;;14.20;99.90;;;;;;5066028;28;20961;-79
2023/09/19 04:05:33;;;;;;;0.50;0.50;;;14.20;99.90;;;;;;5064741;28;20483;-80
2023/09/19 04:08:00;;;;;;;0.50;0.40;;;14.20;99.90;;;;;;5064093;28;20483;-81
2023/09/19 04:10:28;;;;;;;0.50;0.40;;;14.20;99.90;;;;;;5065552;28;20467;-79
2023/09/19 04:12:55;;;;;;;0.50;0.40;;;14.10;99.90;;;;;;5059084;28;20483;-81
2023/09/19 04:15:23;;;;;;;0.50;0.40;;;14.10;99.90;;;;;;5068155;28;20445;-79
2023/09/19 04:17:50;;;;;;;1.37;1.37;;;14.10;99.90;;;;;;5061139;28;20430;-80
2023/09/19 04:20:19;;;;;;;0.50;0.40;;;14.10;99.90;;;;;;5055558;28;20462;-79
2023/09/19 04:22:46;;;;;;;0.50;0.40;;;14.10;99.90;;;;;;5064309;28;20465;-80
2023/09/19 04:25:13;;;;;;;0.50;0.40;;;14.10;99.90;;;;;;5061440;28;20461;-80
2023/09/19 04:27:40;;;;;;;0.50;0.40;;;14.10;99.90;;;;;;5059236;28;20589;-80
2023/09/19 04:30:10;;;;;;;0.50;0.40;;;14.10;99.90;;;;;;5062326;28;20462;-80
2023/09/19 04:32:38;;;;;;;0.50;0.40;;;14.10;99.90;;;;;;5061889;28;20460;-79
2023/09/19 04:35:08;;;;;;;0.50;0.40;;;14.10;99.90;;;;;;5060147;28;20452;-80
2023/09/19 04:37:39;;;;;;;0.60;0.60;;;14.10;99.90;;;;;;5068969;28;20526;-79
2023/09/19 04:40:12;;;;;;;0.50;0.40;;;14.10;99.90;;;;;;5068079;28;20430;-80
2023/09/19 04:42:39;;;;;;;0.50;0.40;;;14.10;99.90;;;;;;5068367;28;20486;-79
2023/09/19 04:45:07;;;;;;;1.27;0.53;;;14.10;99.90;;;;;;5067358;28;20465;-79
2023/09/19 04:47:34;;;;;;;0.90;0.70;;;14.10;99.90;;;;;;5067736;28;20479;-80
2023/09/19 04:50:01;;;;;;;0.50;0.40;;;14.10;99.90;;;;;;5064887;28;20443;-79
2023/09/19 04:52:27;;;;;;;0.73;0.73;;;14.10;99.90;;;;;;5064554;28;20447;-80
2023/09/19 04:54:56;;;;;;;0.50;0.40;;;14.00;99.90;;;;;;5063916;28;20443;-80
2023/09/19 04:57:23;;;;;;;0.50;0.40;;;14.10;99.90;;;;;;5062092;28;20450;-79
2023/09/19 04:59:50;;;;;;;0.50;0.40;;;14.00;99.90;;;;;;5069535;28;20458;-80
2023/09/19 05:02:17;;;;;;;0.50;0.40;;;14.00;99.90;;;;;;5065128;28;20462;-79
2023/09/19 05:04:43;;;;;;;1.03;0.93;;;14.00;99.90;;;;;;5065109;28;20451;-80
2023/09/19 05:07:10;;;;;;;0.50;0.50;;;14.00;99.90;;;;;;5070254;28;20478;-81
2023/09/19 05:09:37;;;;;;;0.50;0.40;;;14.00;99.90;;;;;;5070790;28;20859;-81
2023/09/19 05:12:06;;;;;;;0.60;0.50;;;14.10;99.90;;;;;;5058466;28;20438;-81
2023/09/19 05:14:33;;;;;;;0.50;0.40;;;14.10;99.90;;;;;;5066795;28;21151;-80
2023/09/19 05:17:00;;;;;;;0.50;0.40;;;14.10;99.90;;;;;;5067490;28;20498;-81
2023/09/19 05:19:27;;;;;;;0.50;0.50;;;14.10;99.90;;;;;;5067832;28;20489;-78
2023/09/19 05:21:55;;;;;;;0.50;0.40;;;14.10;99.90;;;;;;5069456;28;20565;-81
2023/09/19 05:24:23;;;;;;;0.80;0.73;;;14.10;99.90;;;;;;5066484;28;20529;-80
2023/09/19 05:26:49;;;;;;;0.50;0.40;;;14.10;99.90;;;;;;5067149;28;20438;-81
2023/09/19 05:29:18;;;;;;;0.50;0.40;;;14.10;99.90;;;;;;5067056;28;20436;-80
2023/09/19 05:31:44;;;;;;;0.50;0.40;;;14.10;99.90;;;;;;5067282;28;20447;-79
2023/09/19 05:34:11;;;;;;;2.90;1.77;;;14.10;99.90;;;;;;5070620;28;20477;-81
2023/09/19 05:36:39;;;;;;;1.00;1.00;;;14.20;99.90;;;;;;5063383;28;20447;-80
2023/09/19 05:39:09;;;;;;;0.60;0.50;;;14.20;99.90;;;;;;5060835;28;20443;-82
2023/09/19 05:41:36;;;;;;;0.50;0.40;;;14.20;99.90;;;;;;5064798;28;20594;-80
2023/09/19 05:44:03;;;;;;;0.50;0.40;;;14.20;99.90;;;;;;5069033;28;20520;-79
2023/09/19 05:46:31;;;;;;;1.07;0.80;;;14.30;99.90;;;;;;5069447;28;20433;-80
2023/09/19 05:48:58;;;;;;;0.50;0.40;;;14.30;99.90;;;;;;5069681;28;20989;-81
2023/09/19 05:51:28;;;;;;;0.50;0.40;;;14.40;99.90;;;;;;5070990;28;20501;-82
2023/09/19 05:53:55;;;;;;;0.53;0.50;;;14.40;99.90;;;;;;5062434;28;20499;-80
2023/09/19 05:56:22;;;;;;;0.50;0.40;;;14.50;99.90;;;;;;5069836;28;20431;-79
2023/09/19 05:58:51;;;;;;;1.57;1.47;;;14.50;99.90;;;;;;5069769;28;20498;-80
2023/09/19 06:01:18;;;;;;;0.50;0.40;;;14.50;99.90;;;;;;5065534;28;20447;-81
2023/09/19 06:03:46;;;;;;;0.57;0.57;;;14.60;99.90;;;;;;5057813;28;20466;-80
2023/09/19 06:06:13;;;;;;;0.50;0.40;;;14.60;99.90;;;;;;5065711;28;21121;-81
2023/09/19 06:08:40;;;;;;;0.50;0.40;;;14.60;99.90;;;;;;5066619;28;20996;-80
2023/09/19 06:11:09;;;;;;;0.50;0.50;;;14.60;99.90;;;;;;5068494;28;20446;-81
2023/09/19 06:13:36;;;;;;;0.50;0.40;;;14.70;99.90;;;;;;5063429;28;20503;-80
2023/09/19 06:16:04;;;;;;;0.50;0.40;;;14.70;99.90;;;;;;5059712;28;21052;-80
2023/09/19 06:18:33;;;;;;;0.50;0.40;;;14.80;99.90;;;;;;5063928;28;20439;-80
2023/09/19 06:21:07;;;;;;;0.80;0.70;;;14.80;99.90;;;;;;5060140;28;20443;-81
2023/09/19 06:23:34;;;;;;;0.50;0.40;;;14.90;99.90;;;;;;5064442;28;20464;-81
2023/09/19 06:26:01;;;;;;;0.50;0.50;;;14.80;99.90;;;;;;5066110;28;20444;-81
2023/09/19 06:28:28;;;;;;;0.50;0.40;;;14.90;99.90;;;;;;5067469;28;20474;-80
2023/09/19 06:30:55;;;;;;;0.50;0.40;;;14.90;99.90;;;;;;5075137;28;20958;-80
2023/09/19 06:33:22;;;;;;;0.50;0.40;;;14.90;99.90;;;;;;5072155;28;20462;-81
2023/09/19 06:35:49;;;;;;;0.67;0.67;;;14.90;99.90;;;;;;5072140;28;20475;-81
2023/09/19 06:38:19;;;;;;;10.40;0.80;;;15.00;99.90;;;;;;5076264;28;20449;-81
2023/09/19 06:40:45;;;;;;;0.50;0.40;;;15.00;99.90;;;;;;5068509;28;20448;-80
2023/09/19 06:43:12;;;;;;;4.53;4.33;;;15.00;99.90;;;;;;5068224;28;20459;-81
2023/09/19 06:45:39;;;;;;;0.60;0.50;;;15.00;99.90;;;;;;5067335;28;20447;-81
2023/09/19 06:48:07;;;;;;;7.40;1.90;;;15.10;99.90;;;;;;5063885;28;20482;-80
2023/09/19 06:50:34;;;;;;;1.57;0.60;;;15.00;99.90;;;;;;5071915;28;20898;-80
2023/09/19 06:53:02;;;;;;;0.50;0.40;;;15.00;99.90;;;;;;5071485;28;20458;-80
2023/09/19 06:55:31;;;;;;;0.50;0.50;;;15.10;99.90;;;;;;5071309;28;20443;-81
2023/09/19 06:57:58;;;;;;;0.50;0.40;;;15.10;99.90;;;;;;5072169;28;20518;-81
2023/09/19 07:00:25;;;;;;;0.90;0.90;;;15.20;99.90;;;;;;5072191;28;20435;-81
2023/09/19 07:03:00;;;;;;;0.60;0.50;;;15.20;99.90;;;;;;5062644;28;20547;-81
2023/09/19 07:05:28;;;;;;;0.50;0.40;;;15.20;99.90;;;;;;5065199;28;20526;-81
2023/09/19 07:07:55;;;;;;;0.50;0.40;;;15.40;99.90;;;;;;5070913;28;20525;-80
2023/09/19 07:10:23;;;;;;;0.50;0.40;;;15.40;99.90;;;;;;5068234;28;20431;-80
2023/09/19 07:12:56;;;;;;;0.57;0.57;;;15.40;99.90;;;;;;5066770;28;21000;-80
2023/09/19 07:15:25;;;;;;;0.50;0.40;;;15.50;99.90;;;;;;5070603;28;20466;-80
2023/09/19 07:17:52;;;;;;;1.10;1.00;;;15.50;99.90;;;;;;5070008;28;20448;-80
2023/09/19 07:20:19;;;;;;;0.50;0.40;;;15.50;99.90;;;;;;5067416;28;20810;-81
2023/09/19 07:22:46;;;;;;;0.50;0.50;;;15.50;99.90;;;;;;5065476;28;20460;-81
2023/09/19 07:25:13;;;;;;;0.50;0.40;;;15.50;99.90;;;;;;5068511;28;20446;-81
2023/09/19 07:27:40;;;;;;;1.37;1.23;;;15.60;99.90;;;;;;5068053;28;20433;-80
2023/09/19 07:30:10;;;;;;;0.50;0.40;;;15.60;99.90;;;;;;5073596;28;20518;-80
2023/09/19 07:32:38;;;;;;;0.50;0.40;;;15.70;99.90;;;;;;5075696;28;20485;-81
2023/09/19 07:35:06;;;;;;;0.50;0.40;;;15.80;99.90;;;;;;5074460;28;20453;-81
2023/09/19 07:37:33;;;;;;;0.50;0.40;;;15.90;99.90;;;;;;5067447;28;20435;-80
2023/09/19 07:40:00;;;;;;;1.17;0.83;;;15.90;99.90;;;;;;5073084;28;20439;-80
2023/09/19 07:42:27;;;;;;;0.60;0.60;;;16.00;99.90;;;;;;5065800;28;20938;-79
2023/09/19 07:44:54;;;;;;;0.60;0.60;;;15.90;99.90;;;;;;5075861;28;20511;-79
2023/09/19 07:47:22;;;;;;;0.50;0.40;;;16.00;99.90;;;;;;5070053;28;20435;-80
2023/09/19 07:49:49;;;;;;;2.00;0.50;;;16.00;99.90;;;;;;5069922;28;20562;-80
2023/09/19 07:52:16;;;;;;;1.97;1.77;;;16.00;99.90;;;;;;5073832;28;20442;-80
2023/09/19 07:54:43;;;;;;;0.50;0.40;;;16.00;99.90;;;;;;5074604;28;20434;-80
2023/09/19 07:57:10;;;;;;;0.50;0.40;;;16.10;99.90;;;;;;5072136;28;20474;-80
2023/09/19 07:59:38;;;;;;;0.50;0.40;;;16.30;99.90;;;;;;5061494;28;20433;-81
2023/09/19 08:02:05;;;;;;;2.00;1.67;;;16.30;99.90;;;;;;5068732;28;20494;-80
2023/09/19 08:04:34;;;;;;;0.63;0.63;;;16.30;99.90;;;;;;5069374;28;20464;-80
2023/09/19 08:07:03;;;;;;;0.50;0.40;;;16.30;99.90;;;;;;5061424;28;20444;-80
2023/09/19 08:09:33;;;;;;;0.50;0.40;;;16.50;99.90;;;;;;5068271;28;20474;-80
2023/09/19 08:12:03;;;;;;;0.50;0.40;;;16.60;99.90;;;;;;5069407;28;20963;-81
2023/09/19 08:14:30;;;;;;;8.80;1.13;;;16.80;99.90;;;;;;5072454;28;20812;-80
2023/09/19 08:16:58;;;;;;;1.07;0.90;;;17.00;99.90;;;;;;5071789;28;20522;-81
2023/09/19 08:19:28;;;;;;;4.83;1.27;;;16.90;99.90;;;;;;5067787;28;20432;-81
2023/09/19 08:21:58;;;;;;;0.50;0.40;;;17.00;99.90;;;;;;5066944;28;20441;-81
2023/09/19 08:24:27;;;;;;;0.90;0.80;;;17.10;99.90;;;;;;5067719;28;20869;-80
2023/09/19 08:26:55;;;;;;;0.50;0.40;;;17.20;99.90;;;;;;5069620;28;20440;-81
2023/09/19 08:29:27;;;;;;;1.40;0.57;;;17.30;99.90;;;;;;5071931;28;20477;-80
2023/09/19 08:31:54;;;;;;;0.50;0.40;;;17.50;99.90;;;;;;5072750;28;20438;-79
2023/09/19 08:34:22;;;;;;;0.70;0.50;;;17.60;99.90;;;;;;5069024;28;20619;-79
2023/09/19 08:36:48;;;;;;;0.50;0.40;;;17.60;99.90;;;;;;5066158;28;20448;-81
2023/09/19 08:39:18;;;;;;;0.50;0.37;;;17.80;99.90;;;;;;5068254;28;20435;-80
2023/09/19 08:41:45;;;;;;;1.77;0.50;;;18.10;99.90;;;;;;5069266;28;20442;-80
2023/09/19 08:44:12;;;;;;;0.93;0.87;;;18.20;99.90;;;;;;5068951;28;20459;-80
2023/09/19 08:46:42;;;;;;;0.50;0.30;;;18.80;99.90;;;;;;5066642;28;20468;-81
2023/09/19 08:49:14;;;;;;;4.80;0.60;;;19.10;99.90;;;;;;5067929;28;20495;-80
2023/09/19 08:51:45;;;;;;;0.50;0.30;;;19.30;99.90;;;;;;5070201;28;20451;-80
2023/09/19 08:54:22;;;;;;;0.60;0.50;;;19.30;99.90;;;;;;5068267;28;20474;-81
2023/09/19 08:56:51;;;;;;;0.83;0.83;;;19.40;99.90;;;;;;5065587;28;20932;-81
2023/09/19 08:59:24;;;;;;;0.50;0.40;;;19.10;99.90;;;;;;5068285;28;20434;-81
2023/09/19 09:01:53;;;;;;;2.30;0.77;;;19.20;99.90;;;;;;5067652;28;20433;-80
2023/09/19 09:04:20;;;;;;;0.50;0.40;;;19.20;99.90;;;;;;5065512;28;20460;-81
2023/09/19 09:06:48;;;;;;;0.50;0.30;;;19.00;99.90;;;;;;5058139;28;20483;-80
2023/09/19 09:09:15;;;;;;;0.50;0.30;;;18.80;99.90;;;;;;5066316;28;20833;-81
2023/09/19 09:11:43;;;;;;;0.50;0.43;;;19.00;99.90;;;;;;5062786;28;20463;-81
2023/09/19 09:14:11;;;;;;;0.50;0.40;;;19.20;99.90;;;;;;5068423;28;20461;-81
2023/09/19 09:16:39;;;;;;;0.50;0.30;;;19.60;99.90;;;;;;5065716;28;20434;-79
2023/09/19 09:19:06;;;;;;;1.00;0.50;;;20.10;99.90;;;;;;5066644;28;20437;-80
2023/09/19 09:21:35;;;;;;;0.60;0.40;;;19.80;99.90;;;;;;5071686;28;20450;-79
2023/09/19 09:24:30;;;;;;;1.27;0.47;;;19.70;99.90;;;;;;5061485;28;20458;-81
2023/09/19 09:26:58;;;;;;;0.50;0.40;;;20.10;99.90;;;;;;5066079;28;20437;-80
2023/09/19 09:29:44;;;;;;;0.50;0.30;;;19.60;99.90;;;;;;5068173;28;20465;-80
2023/09/19 09:32:21;;;;;;;0.50;0.30;;;19.60;99.90;;;;;;5069847;28;20807;-80
2023/09/19 09:34:51;;;;;;;0.50;0.40;;;19.40;99.90;;;;;;5063082;28;20446;-80
2023/09/19 09:37:19;;;;;;;0.50;0.40;;;19.50;99.90;;;;;;5059356;28;20806;-80
2023/09/19 09:39:53;;;;;;;0.50;0.40;;;19.80;99.90;;;;;;5065381;28;20434;-80
2023/09/19 09:42:35;;;;;;;0.50;0.37;;;19.90;99.90;;;;;;5068194;28;20463;-79
2023/09/19 09:45:15;;;;;;;0.50;0.40;;;19.60;99.90;;;;;;5069600;28;20435;-81
2023/09/19 09:47:49;;;;;;;0.60;0.60;;;20.00;99.90;;;;;;5057843;28;20430;-80
2023/09/19 09:50:29;;;;;;;0.50;0.30;;;20.30;99.90;;;;;;5059517;28;20474;-81
2023/09/19 09:53:03;;;;;;;0.77;0.70;;;20.00;99.90;;;;;;5070985;28;20525;-80
2023/09/19 09:55:30;;;;;;;0.50;0.30;;;20.00;99.90;;;;;;5060600;28;20448;-81
2023/09/19 09:58:20;;;;;;;0.50;0.40;;;20.20;99.90;;;;;;5069158;28;20467;-80
2023/09/19 10:00:57;;;;;;;0.60;0.60;;;20.50;99.90;;;;;;5057066;28;20457;-80
2023/09/19 10:03:39;;;;;;;0.50;0.30;;;20.30;99.90;;;;;;5067309;28;20484;-81
2023/09/19 10:06:24;;;;;;;0.50;0.30;;;20.10;99.90;;;;;;5060670;28;20468;-81
2023/09/19 10:09:10;;;;;;;0.80;0.40;;;19.70;99.90;;;;;;5056830;28;20488;-82
2023/09/19 10:11:42;;;;;;;0.50;0.30;;;19.50;99.90;;;;;;5065195;28;20778;-81
2023/09/19 10:14:12;;;;;;;1.63;0.40;;;19.90;99.90;;;;;;5065122;28;20476;-81
2023/09/19 10:16:46;;;;;;;2.00;0.50;;;20.20;99.90;;;;;;5065165;28;20434;-80
2023/09/19 10:19:20;;;;;;;0.60;0.50;;;20.00;99.90;;;;;;5057282;28;20459;-81
2023/09/19 10:21:48;;;;;;;0.67;0.50;;;20.00;99.90;;;;;;5068140;28;20464;-81
2023/09/19 10:24:16;;;;;;;0.50;0.30;;;20.80;99.90;;;;;;5060116;28;20489;-79
2023/09/19 10:26:45;;;;;;;0.60;0.50;;;21.20;99.90;;;;;;5068056;28;20433;-80
2023/09/19 10:29:15;;;;;;;0.50;0.30;;;21.10;99.90;;;;;;5060199;28;20480;-79
2023/09/19 10:31:47;;;;;;;0.50;0.40;;;21.60;99.90;;;;;;5068359;28;20452;-81
2023/09/19 10:34:15;;;;;;;0.50;0.40;;;21.50;99.90;;;;;;5059980;28;20470;-80
2023/09/19 10:36:46;;;;;;;0.60;0.50;;;21.60;99.90;;;;;;5065173;28;20442;-80
2023/09/19 10:39:18;;;;;;;6.93;2.40;;;21.30;99.90;;;;;;5064658;28;20430;-80
2023/09/19 10:41:53;;;;;;;0.50;0.40;;;20.70;99.90;;;;;;5061469;28;20466;-80
2023/09/19 10:44:24;;;;;;;1.27;0.40;;;20.60;99.90;;;;;;5059919;28;20458;-81
2023/09/19 10:46:52;;;;;;;1.00;0.70;;;21.10;99.90;;;;;;5068974;28;20485;-80
2023/09/19 10:49:20;;;;;;;0.60;0.50;;;21.70;99.90;;;;;;5068564;28;20484;-80
2023/09/19 10:51:49;;;;;;;0.50;0.40;;;22.50;99.90;;;;;;5065594;28;20971;-81
2023/09/19 10:54:19;;;;;;;1.33;0.70;;;22.60;99.90;;;;;;5056363;28;20972;-80
2023/09/19 10:56:50;;;;;;;0.80;0.40;;;23.10;99.90;;;;;;5065394;28;20487;-80
2023/09/19 10:59:18;;;;;;;1.70;1.23;;;22.90;99.90;;;;;;5073398;28;20523;-80
2023/09/19 11:01:48;;;;;;;0.67;0.60;;;22.30;99.90;;;;;;5057429;28;20436;-81
2023/09/19 11:04:26;;;;;;;4.20;0.87;;;21.70;99.90;;;;;;5068070;28;20461;-80
2023/09/19 11:07:04;;;;;;;1.10;1.00;;;21.90;99.90;;;;;;5070492;28;20451;-80
2023/09/19 11:09:48;;;;;;;0.53;0.40;;;21.90;99.90;;;;;;5063342;28;20496;-78
2023/09/19 11:12:48;;;;;;;0.50;0.30;;;21.90;99.90;;;;;;5065685;28;20465;-79
2023/09/19 11:15:48;;;;;;;0.50;0.30;;;22.60;99.90;;;;;;5061516;28;20521;-81
2023/09/19 11:18:52;;;;;;;1.00;0.53;;;22.80;99.90;;;;;;5062543;28;20797;-82
2023/09/19 11:21:58;;;;;;;0.70;0.50;;;22.60;99.90;;;;;;5070023;28;20966;-80
2023/09/19 11:24:30;;;;;;;0.50;0.40;;;22.60;99.90;;;;;;5062259;28;20480;-80
2023/09/19 11:27:14;;;;;;;0.50;0.30;;;22.50;99.90;;;;;;5069424;28;20793;-80
2023/09/19 11:29:41;;;;;;;3.33;1.03;;;22.10;99.90;;;;;;5060396;28;20564;-79
2023/09/19 11:32:09;;;;;;;4.57;0.67;;;22.00;99.90;;;;;;5068321;28;20506;-80
2023/09/19 11:34:41;;;;;;;0.50;0.30;;;22.20;99.90;;;;;;5070816;28;20465;-80
2023/09/19 11:38:07;;;;;;;0.50;0.40;;;22.50;99.90;;;;;;5073630;28;20498;-81
2023/09/19 11:40:36;;;;;;;4.43;1.53;;;22.90;99.90;;;;;;4998271;28;20434;-80
2023/09/19 11:43:34;;;;;;;0.70;0.40;;;22.70;99.90;;;;;;5063828;28;20453;-81
2023/09/19 11:46:10;;;;;;;9.87;0.90;;;21.30;99.90;;;;;;5065634;28;20440;-80
2023/09/19 11:48:41;;;;;;;0.50;0.30;;;21.50;99.90;;;;;;5069558;28;20437;-81
2023/09/19 11:51:19;;;;;;;0.70;0.70;;;22.20;99.90;;;;;;5067211;28;20540;-81
2023/09/19 11:53:47;;;;;;;2.10;1.07;;;22.50;99.90;;;;;;5069543;28;20814;-80
2023/09/19 11:56:17;;;;;;;0.50;0.40;;;22.20;99.90;;;;;;5069323;28;20448;-82
2023/09/19 11:58:45;;;;;;;0.50;0.40;;;22.40;99.90;;;;;;5064662;28;20497;-79
2023/09/19 12:01:19;;;;;;;0.80;0.80;;;22.70;99.90;;;;;;5072200;28;20474;-80
2023/09/19 12:03:49;;;;;;;1.00;0.77;;;22.50;99.90;;;;;;5067790;28;20498;-79
2023/09/19 12:06:17;;;;;;;0.60;0.50;;;22.00;99.90;;;;;;5068706;28;20438;-80
2023/09/19 12:08:48;;;;;;;0.60;0.47;;;21.50;99.90;;;;;;5071191;28;20438;-80
2023/09/19 12:11:19;;;;;;;21.17;1.53;;;21.30;99.90;;;;;;5072280;28;20821;-80
2023/09/19 12:13:48;;;;;;;2.33;0.83;;;21.20;99.90;;;;;;5067869;28;20469;-80
2023/09/19 12:16:16;;;;;;;1.00;0.50;;;21.20;99.90;;;;;;5066007;28;20449;-80
2023/09/19 12:18:46;;;;;;;0.50;0.33;;;21.70;99.90;;;;;;5059672;28;20446;-80
2023/09/19 12:21:24;;;;;;;0.50;0.37;;;22.50;99.90;;;;;;5067001;28;20449;-81
2023/09/19 12:24:11;;;;;;;0.50;0.40;;;23.20;99.90;;;;;;5071239;28;20468;-79
2023/09/19 12:26:44;;;;;;;0.50;0.40;;;23.00;99.90;;;;;;5063558;28;20950;-80
2023/09/19 12:29:15;;;;;;;1.70;1.60;;;23.10;98.40;;;;;;5064444;28;20999;-79
2023/09/19 12:31:55;;;;;;;4.70;0.93;;;23.10;98.70;;;;;;5071372;28;20471;-79
2023/09/19 12:34:26;;;;;;;0.50;0.30;;;23.40;97.20;;;;;;5071777;28;20464;-80
2023/09/19 12:37:11;;;;;;;0.57;0.40;;;23.50;97.30;;;;;;5066447;28;20464;-80
2023/09/19 12:39:38;;;;;;;1.03;0.50;;;23.70;95.10;;;;;;5069048;28;20428;-80
2023/09/19 12:42:08;;;;;;;1.30;0.60;;;23.40;94.80;;;;;;5067581;28;20439;-80
2023/09/19 12:44:36;;;;;;;0.80;0.50;;;23.20;93.70;;;;;;5069184;28;20464;-80
2023/09/19 12:47:10;;;;;;;5.07;0.53;;;22.60;94.80;;;;;;5065102;28;20883;-80
2023/09/19 12:49:37;;;;;;;0.50;0.30;;;22.80;95.30;;;;;;5062304;28;20480;-80
2023/09/19 12:52:04;;;;;;;0.50;0.40;;;22.90;98.30;;;;;;5065900;28;20807;-80
2023/09/19 12:54:39;;;;;;;0.60;0.57;;;23.10;96.30;;;;;;5075670;28;20513;-80
2023/09/19 12:57:08;;;;;;;3.03;1.00;;;22.60;96.40;;;;;;5059013;28;20831;-79
2023/09/19 12:59:36;;;;;;;3.03;0.90;;;22.60;97.20;;;;;;5068788;28;20508;-80
2023/09/19 13:02:07;;;;;;;0.50;0.30;;;22.50;95.50;;;;;;5065362;28;20506;-81